sensor_id;sensor_type;location;lat;lon;timestamp;temperature;humidity
33149;DHT22;19506;51.040;3.856;2023-04-24T03:32:01;17.20;99.90
33149;DHT22;19506;51.040;3.856;2023-04-24T03:34:27;17.30;99.90
33149;DHT22;19506;51.040;3.856;2023-04-24T03:36:53;17.60;99.90
33149;DHT22;19506;51.040;3.856;2023-04-24T03:39:19;17.80;99.90
33149;DHT22;19506;51.040;3.856;2023-04-24T03:41:44;18.00;99.90
33149;DHT22;19506;51.040;3.856;2023-04-24T03:44:12;18.10;99.90
33149;DHT22;19506;51.040;3.856;2023-04-24T03:46:38;18.10;99.90
33149;DHT22;19506;51.040;3.856;2023-04-24T03:49:04;18.20;99.90
33149;DHT22;19506;51.040;3.856;2023-04-24T03:51:29;18.20;99.90
33149;DHT22;19506;51.040;3.856;2023-04-24T03:53:56;18.20;99.90
33149;DHT22;19506;51.040;3.856;2023-04-24T03:56:21;18.20;99.90
33149;DHT22;19506;51.040;3.856;2023-04-24T03:58:47;18.20;99.90
33149;DHT22;19506;51.040;3.856;2023-04-24T04:01:13;18.30;99.90
33149;DHT22;19506;51.040;3.856;2023-04-24T04:03:38;18.20;99.90
33149;DHT22;19506;51.040;3.856;2023-04-24T04:06:04;18.20;99.90
33149;DHT22;19506;51.040;3.856;2023-04-24T04:08:30;18.20;99.90
33149;DHT22;19506;51.040;3.856;2023-04-24T04:10:55;18.20;99.90
33149;DHT22;19506;51.040;3.856;2023-04-24T04:13:21;18.20;99.90
33149;DHT22;19506;51.040;3.856;2023-04-24T04:15:47;18.20;99.90
33149;DHT22;19506;51.040;3.856;2023-04-24T04:18:12;18.20;99.90
33149;DHT22;19506;51.040;3.856;2023-04-24T04:20:38;18.20;99.90
33149;DHT22;19506;51.040;3.856;2023-04-24T04:23:03;18.20;99.90
33149;DHT22;19506;51.040;3.856;2023-04-24T04:25:29;18.20;99.90
33149;DHT22;19506;51.040;3.856;2023-04-24T04:27:55;18.20;99.90
33149;DHT22;19506;51.040;3.856;2023-04-24T04:30:21;18.20;99.90
33149;DHT22;19506;51.040;3.856;2023-04-24T04:32:47;18.20;99.90
33149;DHT22;19506;51.040;3.856;2023-04-24T04:35:12;18.20;99.90
33149;DHT22;19506;51.040;3.856;2023-04-24T04:37:38;18.20;99.90
33149;DHT22;19506;51.040;3.856;2023-04-24T04:40:06;18.20;99.90
33149;DHT22;19506;51.040;3.856;2023-04-24T04:42:32;18.20;99.90
33149;DHT22;19506;51.040;3.856;2023-04-24T04:45:00;18.20;99.90
33149;DHT22;19506;51.040;3.856;2023-04-24T04:47:26;18.20;99.90
33149;DHT22;19506;51.040;3.856;2023-04-24T14:30:33;19.50;99.90
33149;DHT22;19506;51.040;3.856;2023-04-24T14:32:58;19.50;99.90
33149;DHT22;19506;51.040;3.856;2023-04-24T14:35:24;19.90;99.90
33149;DHT22;19506;51.040;3.856;2023-04-24T14:37:51;20.20;99.90
33149;DHT22;19506;51.040;3.856;2023-04-24T14:40:16;19.80;99.90
33149;DHT22;19506;51.040;3.856;2023-04-24T14:42:42;19.40;99.90
33149;DHT22;19506;51.040;3.856;2023-04-24T14:45:08;19.10;99.90
33149;DHT22;19506;51.040;3.856;2023-04-24T14:47:34;19.00;99.90
33149;DHT22;19506;51.040;3.856;2023-04-24T14:49:59;18.90;99.90
33149;DHT22;19506;51.040;3.856;2023-04-24T14:52:25;18.90;99.90
33149;DHT22;19506;51.040;3.856;2023-04-24T14:54:51;18.90;99.90
33149;DHT22;19506;51.040;3.856;2023-04-24T14:57:16;18.80;99.90
33149;DHT22;19506;51.040;3.856;2023-04-24T14:59:42;18.80;99.90
33149;DHT22;19506;51.040;3.856;2023-04-24T15:02:08;18.80;99.90
33149;DHT22;19506;51.040;3.856;2023-04-24T15:04:33;18.80;99.90
33149;DHT22;19506;51.040;3.856;2023-04-24T15:06:59;18.80;99.90
33149;DHT22;19506;51.040;3.856;2023-04-24T15:09:25;18.80;99.90
33149;DHT22;19506;51.040;3.856;2023-04-24T15:14:18;18.80;99.90
33149;DHT22;19506;51.040;3.856;2023-04-24T15:16:44;18.80;99.90
33149;DHT22;19506;51.040;3.856;2023-04-24T15:21:37;18.80;99.90
33149;DHT22;19506;51.040;3.856;2023-04-24T15:24:04;18.90;99.90
33149;DHT22;19506;51.040;3.856;2023-04-24T15:26:30;18.90;99.90
33149;DHT22;19506;51.040;3.856;2023-04-24T15:28:55;19.00;99.90
33149;DHT22;19506;51.040;3.856;2023-04-24T15:31:21;18.90;99.90
33149;DHT22;19506;51.040;3.856;2023-04-24T15:33:51;18.90;99.90
33149;DHT22;19506;51.040;3.856;2023-04-24T15:36:17;18.90;99.90
33149;DHT22;19506;51.040;3.856;2023-04-24T15:38:44;19.00;99.90
33149;DHT22;19506;51.040;3.856;2023-04-24T15:41:10;19.00;99.90
33149;DHT22;19506;51.040;3.856;2023-04-24T15:46:04;19.00;99.90
33149;DHT22;19506;51.040;3.856;2023-04-24T15:48:31;19.00;99.90
33149;DHT22;19506;51.040;3.856;2023-04-24T15:50:57;19.00;99.90
33149;DHT22;19506;51.040;3.856;2023-04-24T15:53:24;19.00;99.90
33149;DHT22;19506;51.040;3.856;2023-04-24T15:55:51;19.00;99.90
33149;DHT22;19506;51.040;3.856;2023-04-24T15:58:18;19.00;99.90
33149;DHT22;19506;51.040;3.856;2023-04-24T16:00:44;19.00;99.90
33149;DHT22;19506;51.040;3.856;2023-04-24T16:03:11;19.00;99.90
33149;DHT22;19506;51.040;3.856;2023-04-24T16:05:36;19.00;99.90
33149;DHT22;19506;51.040;3.856;2023-04-24T16:08:02;19.10;99.90
33149;DHT22;19506;51.040;3.856;2023-04-24T16:10:28;19.30;99.90
33149;DHT22;19506;51.040;3.856;2023-04-24T16:12:54;19.20;99.90
33149;DHT22;19506;51.040;3.856;2023-04-24T16:15:20;19.20;99.90
33149;DHT22;19506;51.040;3.856;2023-04-24T16:17:47;19.20;99.90
33149;DHT22;19506;51.040;3.856;2023-04-24T16:20:13;19.10;99.90
33149;DHT22;19506;51.040;3.856;2023-04-24T16:22:39;19.10;99.90
33149;DHT22;19506;51.040;3.856;2023-04-24T16:25:08;19.10;99.90
33149;DHT22;19506;51.040;3.856;2023-04-24T16:27:34;19.00;99.90
33149;DHT22;19506;51.040;3.856;2023-04-24T16:30:00;19.00;99.90
33149;DHT22;19506;51.040;3.856;2023-04-24T16:32:26;18.90;99.90
33149;DHT22;19506;51.040;3.856;2023-04-24T16:34:51;19.00;99.90
33149;DHT22;19506;51.040;3.856;2023-04-24T16:37:17;19.00;99.90
33149;DHT22;19506;51.040;3.856;2023-04-24T16:39:43;19.00;99.90
33149;DHT22;19506;51.040;3.856;2023-04-24T16:42:13;19.00;99.90
33149;DHT22;19506;51.040;3.856;2023-04-24T16:44:42;18.90;99.90
33149;DHT22;19506;51.040;3.856;2023-04-24T16:47:09;18.90;99.90
33149;DHT22;19506;51.040;3.856;2023-04-24T16:49:39;18.90;99.90
33149;DHT22;19506;51.040;3.856;2023-04-24T16:52:05;18.90;99.90
33149;DHT22;19506;51.040;3.856;2023-04-24T16:54:31;18.80;99.90
33149;DHT22;19506;51.040;3.856;2023-04-24T16:57:00;19.00;99.90
33149;DHT22;19506;51.040;3.856;2023-04-24T16:59:26;19.00;99.90
33149;DHT22;19506;51.040;3.856;2023-04-24T17:01:53;19.00;99.90
33149;DHT22;19506;51.040;3.856;2023-04-24T17:04:19;19.00;99.90
33149;DHT22;19506;51.040;3.856;2023-04-24T17:06:44;19.00;99.90
33149;DHT22;19506;51.040;3.856;2023-04-24T17:09:10;18.90;99.90
33149;DHT22;19506;51.040;3.856;2023-04-24T17:11:37;18.90;99.90
33149;DHT22;19506;51.040;3.856;2023-04-24T17:14:03;18.90;99.90
33149;DHT22;19506;51.040;3.856;2023-04-24T17:16:30;18.90;99.90
33149;DHT22;19506;51.040;3.856;2023-04-24T17:18:56;18.90;99.90
33149;DHT22;19506;51.040;3.856;2023-04-24T17:21:22;19.00;99.90
33149;DHT22;19506;51.040;3.856;2023-04-24T17:23:48;19.00;99.90
33149;DHT22;19506;51.040;3.856;2023-04-24T17:26:13;19.10;99.90
33149;DHT22;19506;51.040;3.856;2023-04-24T17:28:39;19.20;99.90
33149;DHT22;19506;51.040;3.856;2023-04-24T17:31:05;19.20;99.90
33149;DHT22;19506;51.040;3.856;2023-04-24T17:33:31;19.10;99.90
33149;DHT22;19506;51.040;3.856;2023-04-24T17:35:57;19.10;99.90
33149;DHT22;19506;51.040;3.856;2023-04-24T17:38:24;19.40;99.90
33149;DHT22;19506;51.040;3.856;2023-04-24T17:40:50;19.10;99.90
33149;DHT22;19506;51.040;3.856;2023-04-24T17:43:18;19.10;99.90
33149;DHT22;19506;51.040;3.856;2023-04-24T17:45:44;19.10;99.90
33149;DHT22;19506;51.040;3.856;2023-04-24T17:48:11;19.10;99.90
33149;DHT22;19506;51.040;3.856;2023-04-24T17:50:38;19.10;99.90
33149;DHT22;19506;51.040;3.856;2023-04-24T17:53:04;19.20;99.90
33149;DHT22;19506;51.040;3.856;2023-04-24T17:55:29;19.20;99.90
33149;DHT22;19506;51.040;3.856;2023-04-24T17:57:55;19.30;99.90
33149;DHT22;19506;51.040;3.856;2023-04-24T18:00:21;19.30;99.90
33149;DHT22;19506;51.040;3.856;2023-04-24T18:02:46;19.20;99.90
33149;DHT22;19506;51.040;3.856;2023-04-24T18:05:14;19.30;99.90
33149;DHT22;19506;51.040;3.856;2023-04-24T18:07:39;19.50;99.90
33149;DHT22;19506;51.040;3.856;2023-04-24T18:10:05;19.70;99.90
33149;DHT22;19506;51.040;3.856;2023-04-24T18:12:31;19.60;99.90
33149;DHT22;19506;51.040;3.856;2023-04-24T18:17:23;19.60;99.90
33149;DHT22;19506;51.040;3.856;2023-04-24T18:19:49;19.70;99.90
33149;DHT22;19506;51.040;3.856;2023-04-24T18:22:14;20.00;99.90
33149;DHT22;19506;51.040;3.856;2023-04-24T18:24:40;20.20;99.90
33149;DHT22;19506;51.040;3.856;2023-04-24T18:27:06;19.90;99.90
33149;DHT22;19506;51.040;3.856;2023-04-24T18:29:31;19.80;99.90
33149;DHT22;19506;51.040;3.856;2023-04-24T18:31:57;19.70;99.90
33149;DHT22;19506;51.040;3.856;2023-04-24T18:34:22;19.70;99.90
33149;DHT22;19506;51.040;3.856;2023-04-24T18:36:48;19.60;99.90
33149;DHT22;19506;51.040;3.856;2023-04-24T18:39:14;19.60;99.90
33149;DHT22;19506;51.040;3.856;2023-04-24T18:41:39;19.40;99.90
33149;DHT22;19506;51.040;3.856;2023-04-24T18:44:05;19.50;99.90
33149;DHT22;19506;51.040;3.856;2023-04-24T18:46:31;19.40;99.90
33149;DHT22;19506;51.040;3.856;2023-04-24T18:49:02;19.50;99.90
33149;DHT22;19506;51.040;3.856;2023-04-24T18:51:28;19.60;99.90
33149;DHT22;19506;51.040;3.856;2023-04-24T18:53:53;19.70;99.90
33149;DHT22;19506;51.040;3.856;2023-04-24T18:56:19;19.70;99.90
33149;DHT22;19506;51.040;3.856;2023-04-24T18:58:45;19.70;99.90
33149;DHT22;19506;51.040;3.856;2023-04-24T19:01:10;19.70;99.90
33149;DHT22;19506;51.040;3.856;2023-04-24T19:03:36;19.70;99.90
33149;DHT22;19506;51.040;3.856;2023-04-24T19:06:02;19.80;99.90
33149;DHT22;19506;51.040;3.856;2023-04-24T19:08:27;19.80;99.90
33149;DHT22;19506;51.040;3.856;2023-04-24T19:10:53;19.60;99.90
33149;DHT22;19506;51.040;3.856;2023-04-24T19:13:19;19.80;99.90
33149;DHT22;19506;51.040;3.856;2023-04-24T19:15:45;19.80;99.90
33149;DHT22;19506;51.040;3.856;2023-04-24T19:18:10;19.90;99.90
33149;DHT22;19506;51.040;3.856;2023-04-24T19:20:36;20.00;99.90
33149;DHT22;19506;51.040;3.856;2023-04-24T19:23:02;20.00;99.90
33149;DHT22;19506;51.040;3.856;2023-04-24T19:25:27;19.90;99.90
33149;DHT22;19506;51.040;3.856;2023-04-24T19:27:53;19.90;99.90
33149;DHT22;19506;51.040;3.856;2023-04-24T19:30:19;19.80;99.90
33149;DHT22;19506;51.040;3.856;2023-04-24T19:35:10;20.00;99.90
33149;DHT22;19506;51.040;3.856;2023-04-24T19:37:37;20.00;99.90
33149;DHT22;19506;51.040;3.856;2023-04-24T19:40:03;20.00;99.90
33149;DHT22;19506;51.040;3.856;2023-04-24T19:42:29;20.00;99.90
33149;DHT22;19506;51.040;3.856;2023-04-24T19:44:55;20.00;99.90
33149;DHT22;19506;51.040;3.856;2023-04-24T19:47:21;20.10;99.90
33149;DHT22;19506;51.040;3.856;2023-04-24T19:49:46;20.00;99.90
33149;DHT22;19506;51.040;3.856;2023-04-24T19:52:12;20.10;99.90
33149;DHT22;19506;51.040;3.856;2023-04-24T19:54:39;20.10;99.90
33149;DHT22;19506;51.040;3.856;2023-04-24T19:57:05;20.00;99.90
33149;DHT22;19506;51.040;3.856;2023-04-24T19:59:31;20.00;99.90
33149;DHT22;19506;51.040;3.856;2023-04-24T20:01:56;19.90;99.90
33149;DHT22;19506;51.040;3.856;2023-04-24T20:04:22;19.90;99.90
33149;DHT22;19506;51.040;3.856;2023-04-24T20:06:48;19.90;99.90
33149;DHT22;19506;51.040;3.856;2023-04-24T20:09:14;19.90;99.90
33149;DHT22;19506;51.040;3.856;2023-04-24T20:11:40;19.90;99.90
33149;DHT22;19506;51.040;3.856;2023-04-24T20:14:06;19.90;99.90
33149;DHT22;19506;51.040;3.856;2023-04-24T20:16:31;19.90;99.90
